createdAt,value
2023-01-23T00:01:16.214Z,4.18
2023-01-23T00:03:43.468Z,6.28
2023-01-23T00:06:15.216Z,7.20
2023-01-23T00:08:45.653Z,6.38
2023-01-23T00:11:15.105Z,5.68
2023-01-23T00:13:41.936Z,4.90
2023-01-23T00:16:14.876Z,5.53
2023-01-23T00:18:42.262Z,5.50
2023-01-23T00:21:17.476Z,7.00
2023-01-23T00:23:46.322Z,5.43
2023-01-23T00:26:16.572Z,6.32
2023-01-23T00:28:46.401Z,6.85
2023-01-23T00:31:39.028Z,6.68
2023-01-23T00:34:10.489Z,5.72
2023-01-23T00:36:39.333Z,6.43
2023-01-23T00:39:09.217Z,6.95
2023-01-23T00:41:36.249Z,5.72
2023-01-23T00:44:04.442Z,6.18
2023-01-23T00:46:31.352Z,6.65
2023-01-23T00:48:58.213Z,6.65
2023-01-23T00:51:25.598Z,6.55
2023-01-23T00:53:55.106Z,6.18
2023-01-23T00:56:24.491Z,6.88
2023-01-23T00:58:51.433Z,7.78
2023-01-23T01:01:18.878Z,6.40
2023-01-23T01:03:46.337Z,6.80
2023-01-23T01:06:13.415Z,6.18
2023-01-23T01:08:40.380Z,6.45
2023-01-23T01:11:07.793Z,7.75
2023-01-23T01:13:35.192Z,5.75
2023-01-23T01:16:02.289Z,6.35
2023-01-23T01:18:29.933Z,5.53
2023-01-23T01:20:57.727Z,6.75
2023-01-23T01:23:24.491Z,6.70
2023-01-23T01:25:51.913Z,6.93
2023-01-23T01:28:21.177Z,7.47
2023-01-23T01:30:47.934Z,8.02
2023-01-23T01:33:15.133Z,6.00
2023-01-23T01:35:42.274Z,6.18
2023-01-23T01:38:09.342Z,7.88
2023-01-23T01:40:37.777Z,5.90
2023-01-23T01:43:08.688Z,5.63
2023-01-23T01:46:10.763Z,5.20
2023-01-23T01:48:43.831Z,5.88
2023-01-23T01:51:19.155Z,8.65
2023-01-23T01:53:54.481Z,7.20
2023-01-23T01:56:21.649Z,7.25
2023-01-23T01:58:52.149Z,6.75
2023-01-23T02:01:19.368Z,6.78
2023-01-23T02:03:46.905Z,7.93
2023-01-23T02:06:14.005Z,6.05
2023-01-23T02:08:44.560Z,7.32
2023-01-23T02:11:11.831Z,6.00
2023-01-23T02:13:42.996Z,7.53
2023-01-23T02:16:11.519Z,6.03
2023-01-23T02:18:44.497Z,5.53
2023-01-23T02:21:13.178Z,5.65
2023-01-23T02:23:56.889Z,5.95
2023-01-23T02:26:32.898Z,6.35
2023-01-23T02:29:00.131Z,6.43
2023-01-23T02:31:32.195Z,6.35
2023-01-23T02:34:00.175Z,7.13
2023-01-23T02:36:33.974Z,6.40
2023-01-23T02:39:07.050Z,6.88
2023-01-23T02:41:38.896Z,6.43
2023-01-23T02:44:29.338Z,5.45
2023-01-23T02:47:03.788Z,5.03
2023-01-23T02:49:31.346Z,6.45
2023-01-23T02:51:58.140Z,4.85
2023-01-23T02:54:25.383Z,7.57
2023-01-23T02:56:52.274Z,7.60
2023-01-23T02:59:40.377Z,7.88
2023-01-23T03:02:08.258Z,7.20
2023-01-23T03:04:35.180Z,5.20
2023-01-23T03:07:02.049Z,5.38
2023-01-23T03:09:29.129Z,5.65
2023-01-23T03:11:56.498Z,7.70
2023-01-23T03:14:24.363Z,7.32
2023-01-23T03:16:54.033Z,6.75
2023-01-23T03:19:27.925Z,5.30
2023-01-23T03:21:55.125Z,7.32
2023-01-23T03:24:23.116Z,6.50
2023-01-23T03:26:51.208Z,5.95
2023-01-23T03:29:44.135Z,5.13
2023-01-23T03:32:14.927Z,6.93
2023-01-23T03:34:42.944Z,6.28
2023-01-23T03:37:17.393Z,7.47
2023-01-23T03:40:04.672Z,6.68
2023-01-23T03:42:35.649Z,6.80
2023-01-23T03:45:05.956Z,6.60
2023-01-23T03:47:35.948Z,5.97
2023-01-23T03:50:02.930Z,7.00
2023-01-23T03:52:37.762Z,7.60
2023-01-23T03:55:05.523Z,5.95
2023-01-23T03:57:32.759Z,6.93
2023-01-23T04:00:08.860Z,6.25
2023-01-23T04:02:47.582Z,6.10
2023-01-23T04:05:17.300Z,6.80
2023-01-23T04:07:46.233Z,6.35
2023-01-23T04:10:13.810Z,6.97
2023-01-23T04:12:44.524Z,6.05
2023-01-23T04:15:11.907Z,7.47
2023-01-23T04:17:42.075Z,7.07
2023-01-23T04:20:11.081Z,6.32
2023-01-23T04:22:38.446Z,5.30
2023-01-23T04:25:06.728Z,6.88
2023-01-23T04:27:33.704Z,8.23
2023-01-23T04:30:01.200Z,7.55
2023-01-23T04:32:28.003Z,7.43
2023-01-23T04:34:54.814Z,7.07
2023-01-23T04:37:21.634Z,6.95
2023-01-23T04:39:48.467Z,7.25
2023-01-23T04:42:15.292Z,7.45
2023-01-23T04:45:12.074Z,6.30
2023-01-23T04:47:47.709Z,7.32
2023-01-23T04:50:16.916Z,5.75
2023-01-23T04:52:46.212Z,6.40
2023-01-23T04:55:13.863Z,7.32
2023-01-23T04:57:41.211Z,6.68
2023-01-23T05:00:29.372Z,6.72
2023-01-23T05:02:58.323Z,6.28
2023-01-23T05:05:26.093Z,8.55
2023-01-23T05:07:56.458Z,5.40
2023-01-23T05:10:23.661Z,7.90
2023-01-23T05:12:50.883Z,6.70
2023-01-23T05:15:17.967Z,6.65
2023-01-23T05:17:46.312Z,6.05
2023-01-23T05:20:14.044Z,7.38
2023-01-23T05:22:52.431Z,7.22
2023-01-23T05:25:27.738Z,6.85
2023-01-23T05:27:56.392Z,7.13
2023-01-23T05:30:24.342Z,7.32
2023-01-23T05:32:57.296Z,6.75
2023-01-23T05:35:24.247Z,7.78
2023-01-23T05:37:52.107Z,6.32
2023-01-23T05:40:22.924Z,6.25
2023-01-23T05:43:15.053Z,6.18
2023-01-23T05:46:01.603Z,6.75
2023-01-23T05:48:40.772Z,6.40
2023-01-23T05:51:10.580Z,6.50
2023-01-23T05:53:40.768Z,5.95
2023-01-23T05:56:09.022Z,7.40
2023-01-23T05:58:43.791Z,6.70
2023-01-23T06:01:21.658Z,7.63
2023-01-23T06:04:08.738Z,7.20
2023-01-23T06:06:46.586Z,6.63
2023-01-23T06:09:13.494Z,6.80
2023-01-23T06:11:40.271Z,7.82
2023-01-23T06:14:09.215Z,6.95
2023-01-23T06:16:36.452Z,5.75
2023-01-23T06:19:04.141Z,8.63
2023-01-23T06:21:33.811Z,6.82
2023-01-23T06:24:01.953Z,6.82
2023-01-23T06:26:28.934Z,7.47
2023-01-23T06:28:57.098Z,6.95
2023-01-23T06:31:24.029Z,5.85
2023-01-23T06:33:54.284Z,6.82
2023-01-23T06:36:29.153Z,8.27
2023-01-23T06:38:56.051Z,8.02
2023-01-23T06:41:28.063Z,6.68
2023-01-23T06:43:58.260Z,7.68
2023-01-23T06:46:27.274Z,6.53
2023-01-23T06:48:54.766Z,8.23
2023-01-23T06:51:22.276Z,6.68
2023-01-23T06:53:49.805Z,8.75
2023-01-23T06:56:17.130Z,6.15
2023-01-23T06:58:45.885Z,6.47
2023-01-23T07:01:22.622Z,6.88
2023-01-23T07:04:15.961Z,6.70
2023-01-23T07:06:44.077Z,6.60
2023-01-23T07:09:14.807Z,6.35
2023-01-23T07:11:45.817Z,6.47
2023-01-23T07:14:12.768Z,6.95
2023-01-23T07:16:41.371Z,6.75
2023-01-23T07:19:09.480Z,7.18
2023-01-23T07:21:38.804Z,6.75
2023-01-23T07:24:06.253Z,7.40
2023-01-23T07:26:33.173Z,7.72
2023-01-23T07:29:00.135Z,7.30
2023-01-23T07:31:26.912Z,7.78
2023-01-23T07:33:53.750Z,7.63
2023-01-23T07:36:20.424Z,6.70
2023-01-23T07:38:47.894Z,6.97
2023-01-23T07:41:14.697Z,6.80
2023-01-23T07:43:41.413Z,6.15
2023-01-23T07:46:09.575Z,6.30
2023-01-23T07:48:37.807Z,6.53
2023-01-23T07:51:05.136Z,8.68
2023-01-23T07:53:32.468Z,6.82
2023-01-23T07:55:59.308Z,7.97
2023-01-23T07:58:26.106Z,8.52
2023-01-23T08:00:52.780Z,6.90
2023-01-23T08:03:20.828Z,6.82
2023-01-23T08:05:50.786Z,6.85
2023-01-23T08:08:17.545Z,6.88
2023-01-23T08:10:44.532Z,8.88
2023-01-23T08:13:11.766Z,9.07
2023-01-23T08:15:38.903Z,6.85
2023-01-23T08:18:06.944Z,8.32
2023-01-23T08:20:33.896Z,9.25
2023-01-23T08:23:02.104Z,9.05
2023-01-23T08:25:29.085Z,8.35
2023-01-23T08:27:58.042Z,7.25
2023-01-23T08:30:27.043Z,7.70
2023-01-23T08:32:53.829Z,7.25
2023-01-23T08:35:20.523Z,8.57
2023-01-23T08:37:48.008Z,9.00
2023-01-23T08:40:14.853Z,6.63
2023-01-23T08:42:44.018Z,9.00
2023-01-23T08:45:10.893Z,8.40
2023-01-23T08:47:38.314Z,8.75
2023-01-23T08:50:06.240Z,7.25
2023-01-23T08:52:35.313Z,8.38
2023-01-23T08:55:02.186Z,9.77
2023-01-23T08:57:29.110Z,9.55
2023-01-23T08:59:59.018Z,8.25
2023-01-23T09:02:26.847Z,8.77
2023-01-23T09:04:53.653Z,9.13
2023-01-23T09:07:21.701Z,7.95
2023-01-23T09:09:48.351Z,8.10
2023-01-23T09:12:15.245Z,8.80
2023-01-23T09:14:42.083Z,9.80
2023-01-23T09:17:09.161Z,8.32
2023-01-23T09:19:35.961Z,8.63
2023-01-23T09:22:03.874Z,9.27
2023-01-23T09:24:31.176Z,7.97
2023-01-23T09:26:58.039Z,7.82
2023-01-23T09:29:24.701Z,10.32
2023-01-23T09:31:51.491Z,9.52
2023-01-23T09:34:18.563Z,9.55
2023-01-23T09:36:45.290Z,8.93
2023-01-23T09:39:12.634Z,9.52
2023-01-23T09:41:40.972Z,11.00
2023-01-23T09:44:36.738Z,8.98
2023-01-23T09:47:15.526Z,10.20
2023-01-23T09:49:45.252Z,7.25
2023-01-23T09:52:16.436Z,9.80
2023-01-23T09:54:49.883Z,11.15
2023-01-23T09:57:18.808Z,10.93
2023-01-23T10:00:00.800Z,9.20
2023-01-23T10:02:30.880Z,10.23
2023-01-23T10:05:01.603Z,9.52
2023-01-23T10:07:33.497Z,10.00
2023-01-23T10:10:38.228Z,8.68
2023-01-23T10:13:16.219Z,7.82
2023-01-23T10:16:12.700Z,8.68
2023-01-23T10:19:08.560Z,7.97
2023-01-23T10:22:01.792Z,7.65
2023-01-23T10:24:46.003Z,8.60
2023-01-23T10:27:32.386Z,8.43
2023-01-23T10:30:13.318Z,7.38
2023-01-23T10:33:17.389Z,7.82
2023-01-23T10:35:53.428Z,10.23
2023-01-23T10:38:33.255Z,8.27
2023-01-23T10:41:15.096Z,8.75
2023-01-23T10:43:43.532Z,9.15
2023-01-23T10:46:17.404Z,10.02
2023-01-23T10:48:52.226Z,9.20
2023-01-23T10:51:51.884Z,9.70
2023-01-23T10:54:32.882Z,8.20
2023-01-23T10:57:02.973Z,8.32
2023-01-23T11:00:01.277Z,10.07
2023-01-23T11:02:29.624Z,10.85
2023-01-23T11:04:56.838Z,9.63
2023-01-23T11:07:24.941Z,8.73
2023-01-23T11:10:09.704Z,9.57
2023-01-23T11:12:51.664Z,9.15
2023-01-23T11:15:24.774Z,9.40
2023-01-23T11:18:01.520Z,9.27
2023-01-23T11:20:40.812Z,9.55
2023-01-23T11:23:17.486Z,9.55
2023-01-23T11:25:46.939Z,9.68
2023-01-23T11:28:27.332Z,9.15
2023-01-23T11:31:15.470Z,10.63
2023-01-23T11:33:52.044Z,9.35
2023-01-23T11:36:18.885Z,9.30
2023-01-23T11:38:53.602Z,10.60
2023-01-23T11:41:30.189Z,8.23
2023-01-23T11:43:56.925Z,8.68
2023-01-23T11:46:53.650Z,11.00
2023-01-23T11:49:38.935Z,7.28
2023-01-23T11:52:43.454Z,7.88
2023-01-23T11:55:34.848Z,9.48
2023-01-23T11:58:49.067Z,8.68
2023-01-23T12:04:03.825Z,6.65
2023-01-23T12:07:01.629Z,10.48
2023-01-23T12:09:43.702Z,7.57
2023-01-23T12:12:28.555Z,9.82
2023-01-23T12:15:18.369Z,8.52
2023-01-23T12:18:09.873Z,9.27
2023-01-23T12:21:03.132Z,8.43
2023-01-23T12:24:40.977Z,9.97
2023-01-23T12:27:26.728Z,9.15
2023-01-23T12:30:02.340Z,5.75
2023-01-23T12:32:43.922Z,10.05
2023-01-23T12:35:40.109Z,9.25
2023-01-23T12:38:23.320Z,10.13
2023-01-23T12:40:55.779Z,7.97
2023-01-23T12:43:43.558Z,10.50
2023-01-23T12:46:34.298Z,9.48
2023-01-23T12:49:36.497Z,9.77
2023-01-23T12:52:20.182Z,7.50
2023-01-23T12:54:55.920Z,9.15
2023-01-23T12:57:52.712Z,8.32
2023-01-23T13:00:47.602Z,9.57
2023-01-23T13:03:37.512Z,9.05
2023-01-23T13:06:44.867Z,8.52
2023-01-23T13:09:31.687Z,8.73
2023-01-23T13:12:01.745Z,9.90
2023-01-23T13:14:43.396Z,7.75
2023-01-23T13:17:32.263Z,9.10
2023-01-23T13:20:46.314Z,9.77
2023-01-23T13:23:33.211Z,10.25
2023-01-23T13:26:15.322Z,7.30
2023-01-23T13:28:56.576Z,11.68
2023-01-23T13:31:46.272Z,9.93
2023-01-23T13:34:16.219Z,10.23
2023-01-23T13:36:53.395Z,10.05
2023-01-23T13:39:26.584Z,8.23
2023-01-23T13:42:16.279Z,8.70
2023-01-23T13:45:18.079Z,8.68
2023-01-23T14:22:47.315Z,8.10
2023-01-23T14:25:18.184Z,6.82
2023-01-23T14:27:53.836Z,7.63
2023-01-23T14:30:26.483Z,6.78
2023-01-23T14:32:53.860Z,7.18
2023-01-23T14:35:29.793Z,7.88
2023-01-23T14:38:02.149Z,6.70
2023-01-23T14:40:40.333Z,7.13
2023-01-23T14:43:26.675Z,7.65
2023-01-23T14:46:06.931Z,5.82
2023-01-23T14:48:40.986Z,8.32
2023-01-23T14:51:21.097Z,6.15
2023-01-23T14:54:00.345Z,7.13
2023-01-23T14:56:35.905Z,6.75
2023-01-23T14:59:06.187Z,5.38
2023-01-23T15:01:35.776Z,5.85
2023-01-23T15:04:23.334Z,5.85
2023-01-23T15:06:55.456Z,7.13
2023-01-23T15:09:31.268Z,6.20
2023-01-23T15:12:11.634Z,6.70
2023-01-23T15:14:39.815Z,6.15
2023-01-23T15:17:14.628Z,7.15
2023-01-23T15:19:42.593Z,7.50
2023-01-23T15:22:33.538Z,6.28
2023-01-23T15:25:27.734Z,6.75
2023-01-23T15:30:29.696Z,4.70
2023-01-23T15:32:58.962Z,6.47
2023-01-23T15:35:28.632Z,5.05
2023-01-23T15:38:04.555Z,6.55
2023-01-23T15:40:34.982Z,6.40
2023-01-23T15:43:05.595Z,6.28
2023-01-23T15:45:33.743Z,6.78
2023-01-23T15:48:01.635Z,6.60
2023-01-23T15:50:29.391Z,6.90
2023-01-23T15:52:58.771Z,6.95
2023-01-23T15:55:29.174Z,5.65
2023-01-23T15:57:59.519Z,6.05
2023-01-23T16:00:29.896Z,5.32
2023-01-23T16:02:58.755Z,5.93
2023-01-23T16:05:33.340Z,4.60
2023-01-23T16:08:03.375Z,6.63
2023-01-23T16:10:40.428Z,6.03
2023-01-23T16:13:07.764Z,5.00
2023-01-23T16:15:35.573Z,5.28
2023-01-23T16:18:07.084Z,6.10
2023-01-23T16:20:40.385Z,5.63
2023-01-23T16:23:18.674Z,6.40
2023-01-23T16:25:48.330Z,5.35
2023-01-23T16:28:18.017Z,5.28
2023-01-23T16:30:47.248Z,6.00
2023-01-23T16:33:15.408Z,6.07
2023-01-23T16:35:43.669Z,5.03
2023-01-23T16:38:22.468Z,6.47
2023-01-23T16:40:52.932Z,5.43
2023-01-23T16:43:22.166Z,5.95
2023-01-23T16:45:49.099Z,6.20
2023-01-23T16:48:26.341Z,6.15
2023-01-23T16:50:58.493Z,8.30
2023-01-23T16:53:46.935Z,6.57
2023-01-23T16:56:22.433Z,7.85
2023-01-23T16:58:50.069Z,6.80
2023-01-23T17:01:20.430Z,7.03
2023-01-23T17:03:57.452Z,7.15
2023-01-23T17:06:24.298Z,7.55
2023-01-23T17:08:53.376Z,7.25
2023-01-23T17:11:24.794Z,9.35
2023-01-23T17:13:58.620Z,7.50
2023-01-23T17:16:28.544Z,7.47
2023-01-23T17:18:58.523Z,7.63
2023-01-23T17:21:30.389Z,7.80
2023-01-23T17:23:57.117Z,8.02
2023-01-23T17:26:23.876Z,6.63
2023-01-23T17:28:50.859Z,6.75
2023-01-23T17:31:22.661Z,6.47
2023-01-23T17:33:52.509Z,6.82
2023-01-23T17:36:19.796Z,5.78
2023-01-23T17:38:46.711Z,5.57
2023-01-23T17:41:20.291Z,5.25
2023-01-23T17:43:48.358Z,8.50
2023-01-23T17:46:30.333Z,8.85
2023-01-23T17:48:57.395Z,4.80
2023-01-23T17:51:25.354Z,6.22
2023-01-23T17:53:52.555Z,6.70
2023-01-23T17:56:19.313Z,7.88
2023-01-23T17:58:46.276Z,6.63
2023-01-23T18:01:22.365Z,9.52
2023-01-23T18:03:53.771Z,7.68
2023-01-23T18:06:22.418Z,8.18
2023-01-23T18:08:49.272Z,8.15
2023-01-23T18:11:24.050Z,5.28
2023-01-23T18:14:02.389Z,6.65
2023-01-23T18:16:39.736Z,6.22
2023-01-23T18:19:27.403Z,6.50
2023-01-23T18:21:58.892Z,6.35
2023-01-23T18:24:30.042Z,6.95
2023-01-23T18:27:22.691Z,5.63
2023-01-23T18:30:08.141Z,5.18
2023-01-23T18:32:42.987Z,5.28
2023-01-23T18:35:36.068Z,5.15
2023-01-23T18:38:17.542Z,5.88
2023-01-23T18:41:12.226Z,5.63
2023-01-23T18:43:51.975Z,5.90
2023-01-23T18:46:20.792Z,6.15
2023-01-23T18:48:49.381Z,6.53
2023-01-23T18:51:42.042Z,6.00
2023-01-23T18:54:20.052Z,7.63
2023-01-23T18:57:04.801Z,5.45
2023-01-23T18:59:55.097Z,5.80
2023-01-23T19:02:40.926Z,5.85
2023-01-23T19:05:16.568Z,4.90
2023-01-23T19:07:44.973Z,5.63
2023-01-23T19:10:20.538Z,6.03
2023-01-23T19:13:36.586Z,6.03
2023-01-23T19:16:31.360Z,5.65
2023-01-23T19:19:23.564Z,4.32
2023-01-23T19:21:53.958Z,5.78
2023-01-23T19:24:26.589Z,5.65
2023-01-23T19:26:54.772Z,5.05
2023-01-23T19:29:24.838Z,6.70
2023-01-23T19:32:04.084Z,6.32
2023-01-23T19:34:33.138Z,5.93
2023-01-23T19:37:03.150Z,5.97
2023-01-23T19:39:30.667Z,7.00
2023-01-23T19:41:58.821Z,6.85
2023-01-23T19:44:28.601Z,5.78
2023-01-23T19:46:56.516Z,6.35
2023-01-23T19:49:24.980Z,6.22
2023-01-23T19:51:54.841Z,5.97
2023-01-23T19:54:24.072Z,5.95
2023-01-23T19:56:51.342Z,6.82
2023-01-23T19:59:18.430Z,6.93
2023-01-23T20:01:49.376Z,7.30
2023-01-23T20:04:18.379Z,6.80
2023-01-23T20:06:45.567Z,6.97
2023-01-23T20:09:14.533Z,7.07
2023-01-23T20:11:42.262Z,7.28
2023-01-23T20:14:09.048Z,6.40
2023-01-23T20:16:40.311Z,7.63
2023-01-23T20:19:07.614Z,7.10
2023-01-23T20:21:38.757Z,7.65
2023-01-23T20:24:08.186Z,5.93
2023-01-23T20:26:35.386Z,6.45
2023-01-23T20:29:03.759Z,7.72
2023-01-23T20:31:31.299Z,6.15
2023-01-23T20:33:58.265Z,4.93
2023-01-23T20:36:25.117Z,5.97
2023-01-23T20:41:43.735Z,5.38
2023-01-23T20:44:11.544Z,7.53
2023-01-23T20:46:41.237Z,5.90
2023-01-23T20:49:12.936Z,6.18
2023-01-23T20:51:39.799Z,6.50
2023-01-23T20:54:06.622Z,6.22
2023-01-23T20:56:33.403Z,6.90
2023-01-23T20:59:18.489Z,6.90
2023-01-23T21:02:04.787Z,5.68
2023-01-23T21:04:34.370Z,5.53
2023-01-23T21:07:02.013Z,7.15
2023-01-23T21:09:31.646Z,7.05
2023-01-23T21:11:58.676Z,6.45
2023-01-23T21:14:27.669Z,6.15
2023-01-23T21:16:56.232Z,7.97
2023-01-23T21:19:24.045Z,5.78
2023-01-23T21:21:50.899Z,5.10
2023-01-23T21:24:18.640Z,5.65
2023-01-23T21:26:45.427Z,6.25
2023-01-23T21:29:13.098Z,6.40
2023-01-23T21:31:42.734Z,6.78
2023-01-23T21:34:13.353Z,6.28
2023-01-23T21:36:41.941Z,6.40
2023-01-23T21:39:10.542Z,5.85
2023-01-23T21:41:37.449Z,6.95
2023-01-23T21:44:06.017Z,6.32
2023-01-23T21:46:35.706Z,5.72
2023-01-23T21:49:02.746Z,6.07
2023-01-23T21:51:32.189Z,6.15
2023-01-23T21:53:59.073Z,6.15
2023-01-23T21:56:26.496Z,5.53
2023-01-23T21:58:53.951Z,7.03
2023-01-23T22:01:32.689Z,5.75
2023-01-23T22:04:09.468Z,6.28
2023-01-23T22:06:38.403Z,5.07
2023-01-23T22:09:07.741Z,6.03
2023-01-23T22:11:35.109Z,5.45
2023-01-23T22:14:02.123Z,6.95
2023-01-23T22:16:47.038Z,5.28
2023-01-23T22:19:16.532Z,5.80
2023-01-23T22:21:46.110Z,6.95
2023-01-23T22:24:13.015Z,4.88
2023-01-23T22:26:39.896Z,5.57
2023-01-23T22:29:08.413Z,6.28
2023-01-23T22:31:38.555Z,7.10
2023-01-23T22:34:06.454Z,5.40
2023-01-23T22:36:33.221Z,6.13
2023-01-23T22:39:00.106Z,6.10
2023-01-23T22:41:28.422Z,5.78
2023-01-23T22:43:56.593Z,6.75
2023-01-23T22:46:25.978Z,6.57
2023-01-23T22:48:53.634Z,6.35
2023-01-23T22:51:24.924Z,6.97
2023-01-23T22:53:53.441Z,5.35
2023-01-23T22:56:21.195Z,5.60
2023-01-23T22:58:54.777Z,6.78
2023-01-23T23:01:23.556Z,5.78
2023-01-23T23:03:51.040Z,5.53
2023-01-23T23:06:18.718Z,6.00
2023-01-23T23:08:47.890Z,5.28
2023-01-23T23:11:20.352Z,6.90
2023-01-23T23:13:51.490Z,5.13
2023-01-23T23:16:28.633Z,6.90
2023-01-23T23:18:57.320Z,6.72
2023-01-23T23:21:28.203Z,6.90
2023-01-23T23:23:59.672Z,6.30
2023-01-23T23:26:31.239Z,6.13
2023-01-23T23:29:00.395Z,5.97
2023-01-23T23:31:27.714Z,7.35
2023-01-23T23:33:55.978Z,6.97
2023-01-23T23:36:23.341Z,6.32
2023-01-23T23:38:50.164Z,5.53
2023-01-23T23:41:17.732Z,6.40
2023-01-23T23:43:44.923Z,6.20
2023-01-23T23:46:14.204Z,5.72
2023-01-23T23:48:41.709Z,5.75
2023-01-23T23:51:12.995Z,7.22
2023-01-23T23:53:39.933Z,6.10
2023-01-23T23:56:08.478Z,5.55
2023-01-23T23:58:39.054Z,6.00
